sensor_id;sensor_type;location;lat;lon;timestamp;temperature;humidity
64833;HTU21D;51290;45.060;38.948;2023-09-19T00:01:09;16.95;52.05
64833;HTU21D;51290;45.060;38.948;2023-09-19T00:03:35;16.92;52.01
64833;HTU21D;51290;45.060;38.948;2023-09-19T00:06:05;16.89;52.15
64833;HTU21D;51290;45.060;38.948;2023-09-19T00:08:36;16.86;52.20
64833;HTU21D;51290;45.060;38.948;2023-09-19T00:11:01;16.84;52.20
64833;HTU21D;51290;45.060;38.948;2023-09-19T00:13:32;16.80;52.25
64833;HTU21D;51290;45.060;38.948;2023-09-19T00:15:59;16.76;52.24
64833;HTU21D;51290;45.060;38.948;2023-09-19T00:18:25;16.71;52.39
64833;HTU21D;51290;45.060;38.948;2023-09-19T00:20:58;16.66;52.54
64833;HTU21D;51290;45.060;38.948;2023-09-19T00:23:24;16.61;52.53
64833;HTU21D;51290;45.060;38.948;2023-09-19T00:25:51;16.56;52.68
64833;HTU21D;51290;45.060;38.948;2023-09-19T00:28:17;16.54;52.75
64833;HTU21D;51290;45.060;38.948;2023-09-19T00:30:46;16.50;52.95
64833;HTU21D;51290;45.060;38.948;2023-09-19T00:33:18;16.50;52.96
64833;HTU21D;51290;45.060;38.948;2023-09-19T00:35:48;16.49;53.04
64833;HTU21D;51290;45.060;38.948;2023-09-19T00:38:15;16.45;53.06
64833;HTU21D;51290;45.060;38.948;2023-09-19T00:40:48;16.43;53.20
64833;HTU21D;51290;45.060;38.948;2023-09-19T00:43:14;16.45;53.27
64833;HTU21D;51290;45.060;38.948;2023-09-19T00:45:48;16.42;53.34
64833;HTU21D;51290;45.060;38.948;2023-09-19T00:48:17;16.40;53.36
64833;HTU21D;51290;45.060;38.948;2023-09-19T00:50:46;16.37;53.45
64833;HTU21D;51290;45.060;38.948;2023-09-19T00:53:18;16.33;53.49
64833;HTU21D;51290;45.060;38.948;2023-09-19T00:55:49;16.27;53.64
64833;HTU21D;51290;45.060;38.948;2023-09-19T00:58:19;16.25;53.87
64833;HTU21D;51290;45.060;38.948;2023-09-19T01:00:49;16.20;53.89
64833;HTU21D;51290;45.060;38.948;2023-09-19T01:03:16;16.16;54.02
64833;HTU21D;51290;45.060;38.948;2023-09-19T01:05:43;16.13;54.10
64833;HTU21D;51290;45.060;38.948;2023-09-19T01:08:11;16.10;54.13
64833;HTU21D;51290;45.060;38.948;2023-09-19T01:10:43;16.08;54.37
64833;HTU21D;51290;45.060;38.948;2023-09-19T01:14:02;16.07;54.37
64833;HTU21D;51290;45.060;38.948;2023-09-19T01:16:35;16.06;54.37
64833;HTU21D;51290;45.060;38.948;2023-09-19T01:25:07;16.01;54.48
64833;HTU21D;51290;45.060;38.948;2023-09-19T01:30:21;15.91;54.69
64833;HTU21D;51290;45.060;38.948;2023-09-19T01:32:53;15.87;54.92
64833;HTU21D;51290;45.060;38.948;2023-09-19T01:35:19;15.86;55.00
64833;HTU21D;51290;45.060;38.948;2023-09-19T01:37:45;15.87;55.09
64833;HTU21D;51290;45.060;38.948;2023-09-19T01:40:13;15.88;55.17
64833;HTU21D;51290;45.060;38.948;2023-09-19T01:48:25;15.84;55.51
64833;HTU21D;51290;45.060;38.948;2023-09-19T01:51:03;15.83;55.36
64833;HTU21D;51290;45.060;38.948;2023-09-19T01:53:50;15.83;55.78
64833;HTU21D;51290;45.060;38.948;2023-09-19T01:56:25;15.82;55.71
64833;HTU21D;51290;45.060;38.948;2023-09-19T01:58:56;15.84;55.96
64833;HTU21D;51290;45.060;38.948;2023-09-19T02:01:24;15.86;55.87
64833;HTU21D;51290;45.060;38.948;2023-09-19T02:03:50;15.85;56.29
64833;HTU21D;51290;45.060;38.948;2023-09-19T02:06:18;15.86;56.25
64833;HTU21D;51290;45.060;38.948;2023-09-19T02:08:45;15.86;56.31
64833;HTU21D;51290;45.060;38.948;2023-09-19T02:11:11;15.83;56.20
64833;HTU21D;51290;45.060;38.948;2023-09-19T02:13:39;15.80;56.33
64833;HTU21D;51290;45.060;38.948;2023-09-19T02:16:07;15.80;56.44
64833;HTU21D;51290;45.060;38.948;2023-09-19T02:18:35;15.78;56.32
64833;HTU21D;51290;45.060;38.948;2023-09-19T02:21:03;15.77;56.45
64833;HTU21D;51290;45.060;38.948;2023-09-19T02:23:38;15.75;56.44
64833;HTU21D;51290;45.060;38.948;2023-09-19T02:26:04;15.75;56.65
64833;HTU21D;51290;45.060;38.948;2023-09-19T02:28:31;15.74;56.62
64833;HTU21D;51290;45.060;38.948;2023-09-19T02:30:58;15.72;56.61
64833;HTU21D;51290;45.060;38.948;2023-09-19T02:33:24;15.67;56.68
64833;HTU21D;51290;45.060;38.948;2023-09-19T02:35:56;15.66;57.13
64833;HTU21D;51290;45.060;38.948;2023-09-19T02:38:29;15.65;57.09
64833;HTU21D;51290;45.060;38.948;2023-09-19T02:40:55;15.66;57.10
64833;HTU21D;51290;45.060;38.948;2023-09-19T02:43:22;15.63;57.34
64833;HTU21D;51290;45.060;38.948;2023-09-19T02:45:49;15.62;57.18
64833;HTU21D;51290;45.060;38.948;2023-09-19T02:48:16;15.59;57.20
64833;HTU21D;51290;45.060;38.948;2023-09-19T02:50:44;15.58;57.46
64833;HTU21D;51290;45.060;38.948;2023-09-19T02:53:10;15.56;57.39
64833;HTU21D;51290;45.060;38.948;2023-09-19T02:55:39;15.51;57.44
64833;HTU21D;51290;45.060;38.948;2023-09-19T02:58:08;15.47;57.54
64833;HTU21D;51290;45.060;38.948;2023-09-19T03:00:37;15.48;58.17
64833;HTU21D;51290;45.060;38.948;2023-09-19T03:03:04;15.47;57.93
64833;HTU21D;51290;45.060;38.948;2023-09-19T03:05:32;15.44;57.89
64833;HTU21D;51290;45.060;38.948;2023-09-19T03:07:59;15.41;57.93
64833;HTU21D;51290;45.060;38.948;2023-09-19T03:10:28;15.40;58.14
64833;HTU21D;51290;45.060;38.948;2023-09-19T03:12:57;15.39;58.06
64833;HTU21D;51290;45.060;38.948;2023-09-19T03:15:26;15.33;58.13
64833;HTU21D;51290;45.060;38.948;2023-09-19T03:17:52;15.32;58.33
64833;HTU21D;51290;45.060;38.948;2023-09-19T03:20:21;15.32;58.35
64833;HTU21D;51290;45.060;38.948;2023-09-19T03:22:48;15.30;58.60
64833;HTU21D;51290;45.060;38.948;2023-09-19T03:25:16;15.31;58.65
64833;HTU21D;51290;45.060;38.948;2023-09-19T03:27:46;15.34;58.60
64833;HTU21D;51290;45.060;38.948;2023-09-19T03:30:13;15.38;58.54
64833;HTU21D;51290;45.060;38.948;2023-09-19T03:32:45;15.38;58.64
64833;HTU21D;51290;45.060;38.948;2023-09-19T03:35:13;15.40;58.67
64833;HTU21D;51290;45.060;38.948;2023-09-19T03:37:41;15.43;58.86
64833;HTU21D;51290;45.060;38.948;2023-09-19T03:40:09;15.45;58.87
64833;HTU21D;51290;45.060;38.948;2023-09-19T03:42:40;15.51;58.79
64833;HTU21D;51290;45.060;38.948;2023-09-19T03:45:08;15.53;59.03
64833;HTU21D;51290;45.060;38.948;2023-09-19T03:47:40;15.58;58.93
64833;HTU21D;51290;45.060;38.948;2023-09-19T03:50:08;15.62;59.02
64833;HTU21D;51290;45.060;38.948;2023-09-19T03:52:37;15.68;58.91
64833;HTU21D;51290;45.060;38.948;2023-09-19T03:55:03;15.76;58.83
64833;HTU21D;51290;45.060;38.948;2023-09-19T03:57:30;15.83;58.74
64833;HTU21D;51290;45.060;38.948;2023-09-19T03:59:56;15.88;58.63
64833;HTU21D;51290;45.060;38.948;2023-09-19T04:02:23;15.97;58.67
64833;HTU21D;51290;45.060;38.948;2023-09-19T04:04:51;16.03;58.59
64833;HTU21D;51290;45.060;38.948;2023-09-19T04:07:17;16.12;58.48
64833;HTU21D;51290;45.060;38.948;2023-09-19T04:09:46;16.19;58.40
64833;HTU21D;51290;45.060;38.948;2023-09-19T04:12:12;16.26;58.27
64833;HTU21D;51290;45.060;38.948;2023-09-19T04:14:38;16.32;58.44
64833;HTU21D;51290;45.060;38.948;2023-09-19T04:17:04;16.41;58.25
64833;HTU21D;51290;45.060;38.948;2023-09-19T04:19:31;16.48;58.17
64833;HTU21D;51290;45.060;38.948;2023-09-19T04:21:57;16.52;58.02
64833;HTU21D;51290;45.060;38.948;2023-09-19T04:24:23;16.59;57.96
64833;HTU21D;51290;45.060;38.948;2023-09-19T04:26:49;16.65;58.02
64833;HTU21D;51290;45.060;38.948;2023-09-19T04:29:15;16.71;57.87
64833;HTU21D;51290;45.060;38.948;2023-09-19T04:31:41;16.78;57.82
64833;HTU21D;51290;45.060;38.948;2023-09-19T04:34:12;16.84;57.66
64833;HTU21D;51290;45.060;38.948;2023-09-19T04:36:41;16.89;57.52
64833;HTU21D;51290;45.060;38.948;2023-09-19T04:39:07;16.92;57.45
64833;HTU21D;51290;45.060;38.948;2023-09-19T04:41:34;16.96;57.32
64833;HTU21D;51290;45.060;38.948;2023-09-19T04:44:00;17.02;57.25
64833;HTU21D;51290;45.060;38.948;2023-09-19T04:46:26;17.08;57.19
64833;HTU21D;51290;45.060;38.948;2023-09-19T04:48:52;17.14;57.04
64833;HTU21D;51290;45.060;38.948;2023-09-19T04:51:20;17.21;56.95
64833;HTU21D;51290;45.060;38.948;2023-09-19T04:53:49;17.28;56.82
64833;HTU21D;51290;45.060;38.948;2023-09-19T04:56:26;17.32;56.67
64833;HTU21D;51290;45.060;38.948;2023-09-19T04:58:54;17.38;56.55
64833;HTU21D;51290;45.060;38.948;2023-09-19T05:01:20;17.45;56.46
64833;HTU21D;51290;45.060;38.948;2023-09-19T05:03:49;17.52;56.32
64833;HTU21D;51290;45.060;38.948;2023-09-19T05:06:21;17.59;56.16
64833;HTU21D;51290;45.060;38.948;2023-09-19T05:08:48;17.66;56.06
64833;HTU21D;51290;45.060;38.948;2023-09-19T05:11:18;17.76;55.97
64833;HTU21D;51290;45.060;38.948;2023-09-19T05:13:45;17.83;55.83
64833;HTU21D;51290;45.060;38.948;2023-09-19T05:16:11;17.91;55.67
64833;HTU21D;51290;45.060;38.948;2023-09-19T05:18:37;17.98;55.53
64833;HTU21D;51290;45.060;38.948;2023-09-19T05:21:03;18.07;55.44
64833;HTU21D;51290;45.060;38.948;2023-09-19T05:23:30;18.14;55.23
64833;HTU21D;51290;45.060;38.948;2023-09-19T05:25:56;18.24;55.10
64833;HTU21D;51290;45.060;38.948;2023-09-19T05:28:24;18.33;54.94
64833;HTU21D;51290;45.060;38.948;2023-09-19T05:30:50;18.42;54.87
64833;HTU21D;51290;45.060;38.948;2023-09-19T05:33:16;18.52;54.75
64833;HTU21D;51290;45.060;38.948;2023-09-19T05:35:47;18.64;54.57
64833;HTU21D;51290;45.060;38.948;2023-09-19T05:38:14;18.76;54.46
64833;HTU21D;51290;45.060;38.948;2023-09-19T05:40:41;18.87;54.32
64833;HTU21D;51290;45.060;38.948;2023-09-19T05:43:09;19.00;54.11
64833;HTU21D;51290;45.060;38.948;2023-09-19T05:45:35;19.12;53.82
64833;HTU21D;51290;45.060;38.948;2023-09-19T05:48:13;19.25;53.62
64833;HTU21D;51290;45.060;38.948;2023-09-19T05:50:39;19.37;53.33
64833;HTU21D;51290;45.060;38.948;2023-09-19T05:53:06;19.48;52.59
64833;HTU21D;51290;45.060;38.948;2023-09-19T05:55:32;19.59;52.33
64833;HTU21D;51290;45.060;38.948;2023-09-19T05:57:58;19.68;51.83
64833;HTU21D;51290;45.060;38.948;2023-09-19T06:00:26;19.75;51.64
64833;HTU21D;51290;45.060;38.948;2023-09-19T06:02:54;19.86;51.17
64833;HTU21D;51290;45.060;38.948;2023-09-19T06:05:21;19.94;51.08
64833;HTU21D;51290;45.060;38.948;2023-09-19T06:07:47;20.01;50.71
64833;HTU21D;51290;45.060;38.948;2023-09-19T06:10:13;20.09;50.59
64833;HTU21D;51290;45.060;38.948;2023-09-19T06:12:43;20.18;50.37
64833;HTU21D;51290;45.060;38.948;2023-09-19T06:15:10;20.29;50.26
64833;HTU21D;51290;45.060;38.948;2023-09-19T06:17:46;20.39;50.02
64833;HTU21D;51290;45.060;38.948;2023-09-19T06:20:12;20.49;49.66
64833;HTU21D;51290;45.060;38.948;2023-09-19T06:22:44;20.60;48.91
64833;HTU21D;51290;45.060;38.948;2023-09-19T06:25:27;20.70;48.82
64833;HTU21D;51290;45.060;38.948;2023-09-19T06:27:53;20.78;48.24
64833;HTU21D;51290;45.060;38.948;2023-09-19T06:30:21;20.88;48.26
64833;HTU21D;51290;45.060;38.948;2023-09-19T06:32:47;20.96;47.92
64833;HTU21D;51290;45.060;38.948;2023-09-19T06:35:15;21.03;46.90
64833;HTU21D;51290;45.060;38.948;2023-09-19T06:37:42;21.09;47.05
64833;HTU21D;51290;45.060;38.948;2023-09-19T06:40:09;21.15;46.59
64833;HTU21D;51290;45.060;38.948;2023-09-19T06:42:44;21.19;46.62
64833;HTU21D;51290;45.060;38.948;2023-09-19T06:45:14;21.23;46.12
64833;HTU21D;51290;45.060;38.948;2023-09-19T06:47:48;21.28;46.14
64833;HTU21D;51290;45.060;38.948;2023-09-19T06:50:21;21.32;46.39
64833;HTU21D;51290;45.060;38.948;2023-09-19T06:52:52;21.36;45.99
64833;HTU21D;51290;45.060;38.948;2023-09-19T06:55:21;21.39;45.89
64833;HTU21D;51290;45.060;38.948;2023-09-19T06:57:49;21.47;45.60
64833;HTU21D;51290;45.060;38.948;2023-09-19T07:00:16;21.53;45.64
64833;HTU21D;51290;45.060;38.948;2023-09-19T07:03:00;21.60;45.16
64833;HTU21D;51290;45.060;38.948;2023-09-19T07:05:33;21.63;45.09
64833;HTU21D;51290;45.060;38.948;2023-09-19T07:07:59;21.64;45.06
64833;HTU21D;51290;45.060;38.948;2023-09-19T07:10:27;21.66;45.20
64833;HTU21D;51290;45.060;38.948;2023-09-19T07:15:23;21.70;45.16
64833;HTU21D;51290;45.060;38.948;2023-09-19T07:17:51;21.75;45.02
64833;HTU21D;51290;45.060;38.948;2023-09-19T07:20:19;21.82;45.12
64833;HTU21D;51290;45.060;38.948;2023-09-19T07:22:45;21.91;45.20
64833;HTU21D;51290;45.060;38.948;2023-09-19T07:25:12;21.98;44.90
64833;HTU21D;51290;45.060;38.948;2023-09-19T07:27:43;22.05;44.53
64833;HTU21D;51290;45.060;38.948;2023-09-19T07:30:10;22.10;44.29
64833;HTU21D;51290;45.060;38.948;2023-09-19T07:32:38;22.17;44.41
64833;HTU21D;51290;45.060;38.948;2023-09-19T07:35:05;22.20;43.96
64833;HTU21D;51290;45.060;38.948;2023-09-19T07:37:32;22.23;43.74
64833;HTU21D;51290;45.060;38.948;2023-09-19T07:40:03;22.24;43.67
64833;HTU21D;51290;45.060;38.948;2023-09-19T07:42:36;22.25;43.80
64833;HTU21D;51290;45.060;38.948;2023-09-19T07:45:08;22.29;43.84
64833;HTU21D;51290;45.060;38.948;2023-09-19T07:47:35;22.35;43.55
64833;HTU21D;51290;45.060;38.948;2023-09-19T07:50:02;22.38;43.54
64833;HTU21D;51290;45.060;38.948;2023-09-19T07:52:29;22.41;43.48
64833;HTU21D;51290;45.060;38.948;2023-09-19T07:54:55;22.44;43.16
64833;HTU21D;51290;45.060;38.948;2023-09-19T07:57:23;22.44;42.84
64833;HTU21D;51290;45.060;38.948;2023-09-19T07:59:49;22.44;42.56
64833;HTU21D;51290;45.060;38.948;2023-09-19T08:02:15;22.46;42.66
64833;HTU21D;51290;45.060;38.948;2023-09-19T08:04:42;22.49;42.52
64833;HTU21D;51290;45.060;38.948;2023-09-19T08:07:08;22.52;42.23
64833;HTU21D;51290;45.060;38.948;2023-09-19T08:09:35;22.54;42.19
64833;HTU21D;51290;45.060;38.948;2023-09-19T08:12:03;22.58;42.20
64833;HTU21D;51290;45.060;38.948;2023-09-19T08:14:30;22.64;41.96
64833;HTU21D;51290;45.060;38.948;2023-09-19T08:16:57;22.70;42.20
64833;HTU21D;51290;45.060;38.948;2023-09-19T08:19:25;22.77;42.29
64833;HTU21D;51290;45.060;38.948;2023-09-19T08:22:00;22.83;42.21
64833;HTU21D;51290;45.060;38.948;2023-09-19T08:24:29;22.93;42.16
64833;HTU21D;51290;45.060;38.948;2023-09-19T08:26:56;22.99;41.75
64833;HTU21D;51290;45.060;38.948;2023-09-19T08:29:25;23.05;41.65
64833;HTU21D;51290;45.060;38.948;2023-09-19T08:31:56;23.07;41.03
64833;HTU21D;51290;45.060;38.948;2023-09-19T08:34:28;23.08;40.87
64833;HTU21D;51290;45.060;38.948;2023-09-19T08:36:56;23.12;40.83
64833;HTU21D;51290;45.060;38.948;2023-09-19T08:39:24;23.17;40.32
64833;HTU21D;51290;45.060;38.948;2023-09-19T08:42:00;23.23;40.09
64833;HTU21D;51290;45.060;38.948;2023-09-19T08:44:28;23.26;39.12
64833;HTU21D;51290;45.060;38.948;2023-09-19T08:47:19;23.26;38.01
64833;HTU21D;51290;45.060;38.948;2023-09-19T08:49:58;23.30;38.34
64833;HTU21D;51290;45.060;38.948;2023-09-19T08:52:32;23.32;38.69
64833;HTU21D;51290;45.060;38.948;2023-09-19T08:55:03;23.37;38.43
64833;HTU21D;51290;45.060;38.948;2023-09-19T08:57:38;23.40;37.64
64833;HTU21D;51290;45.060;38.948;2023-09-19T09:00:11;23.43;38.04
64833;HTU21D;51290;45.060;38.948;2023-09-19T09:02:40;23.47;37.40
64833;HTU21D;51290;45.060;38.948;2023-09-19T09:05:10;23.50;37.37
64833;HTU21D;51290;45.060;38.948;2023-09-19T09:07:37;23.53;37.56
64833;HTU21D;51290;45.060;38.948;2023-09-19T09:10:04;23.55;37.51
64833;HTU21D;51290;45.060;38.948;2023-09-19T09:12:31;23.60;37.62
64833;HTU21D;51290;45.060;38.948;2023-09-19T09:14:58;23.64;37.58
64833;HTU21D;51290;45.060;38.948;2023-09-19T09:17:24;23.72;37.34
64833;HTU21D;51290;45.060;38.948;2023-09-19T09:19:53;23.75;36.77
64833;HTU21D;51290;45.060;38.948;2023-09-19T09:22:20;23.81;36.78
64833;HTU21D;51290;45.060;38.948;2023-09-19T09:24:56;23.84;36.59
64833;HTU21D;51290;45.060;38.948;2023-09-19T09:27:32;23.89;36.54
64833;HTU21D;51290;45.060;38.948;2023-09-19T09:29:59;23.98;36.41
64833;HTU21D;51290;45.060;38.948;2023-09-19T09:32:30;24.04;35.94
64833;HTU21D;51290;45.060;38.948;2023-09-19T09:35:01;24.11;35.46
64833;HTU21D;51290;45.060;38.948;2023-09-19T09:37:30;24.17;35.47
64833;HTU21D;51290;45.060;38.948;2023-09-19T09:40:01;24.23;35.37
64833;HTU21D;51290;45.060;38.948;2023-09-19T09:42:43;24.25;35.23
64833;HTU21D;51290;45.060;38.948;2023-09-19T09:47:47;24.31;34.68
64833;HTU21D;51290;45.060;38.948;2023-09-19T09:50:31;24.33;34.80
64833;HTU21D;51290;45.060;38.948;2023-09-19T09:56:03;24.42;33.87
64833;HTU21D;51290;45.060;38.948;2023-09-19T09:58:37;24.48;34.06
64833;HTU21D;51290;45.060;38.948;2023-09-19T10:01:06;24.53;34.05
64833;HTU21D;51290;45.060;38.948;2023-09-19T10:03:42;24.56;33.67
64833;HTU21D;51290;45.060;38.948;2023-09-19T10:06:19;24.57;33.65
64833;HTU21D;51290;45.060;38.948;2023-09-19T10:12:06;24.66;33.02
64833;HTU21D;51290;45.060;38.948;2023-09-19T10:14:37;24.69;32.54
64833;HTU21D;51290;45.060;38.948;2023-09-19T10:17:09;24.69;32.73
64833;HTU21D;51290;45.060;38.948;2023-09-19T10:19:54;24.73;32.86
64833;HTU21D;51290;45.060;38.948;2023-09-19T10:22:24;24.78;32.47
64833;HTU21D;51290;45.060;38.948;2023-09-19T10:24:53;24.85;31.92
64833;HTU21D;51290;45.060;38.948;2023-09-19T10:27:42;24.89;31.93
64833;HTU21D;51290;45.060;38.948;2023-09-19T10:30:09;24.92;31.79
64833;HTU21D;51290;45.060;38.948;2023-09-19T10:32:39;24.95;32.04
64833;HTU21D;51290;45.060;38.948;2023-09-19T10:35:07;24.99;32.06
64833;HTU21D;51290;45.060;38.948;2023-09-19T10:37:35;25.03;31.69
64833;HTU21D;51290;45.060;38.948;2023-09-19T10:40:06;25.06;31.59
64833;HTU21D;51290;45.060;38.948;2023-09-19T10:42:55;25.05;31.82
64833;HTU21D;51290;45.060;38.948;2023-09-19T10:45:21;25.04;31.77
64833;HTU21D;51290;45.060;38.948;2023-09-19T10:47:53;25.02;32.03
64833;HTU21D;51290;45.060;38.948;2023-09-19T10:50:21;25.01;32.33
64833;HTU21D;51290;45.060;38.948;2023-09-19T10:52:49;24.98;32.67
64833;HTU21D;51290;45.060;38.948;2023-09-19T10:55:18;24.95;32.32
64833;HTU21D;51290;45.060;38.948;2023-09-19T10:57:45;24.98;31.99
64833;HTU21D;51290;45.060;38.948;2023-09-19T11:00:14;25.01;31.92
64833;HTU21D;51290;45.060;38.948;2023-09-19T11:05:39;25.03;32.28
64833;HTU21D;51290;45.060;38.948;2023-09-19T11:08:09;25.07;32.46
64833;HTU21D;51290;45.060;38.948;2023-09-19T11:11:04;25.08;32.25
64833;HTU21D;51290;45.060;38.948;2023-09-19T11:14:28;25.10;32.12
64833;HTU21D;51290;45.060;38.948;2023-09-19T11:30:45;25.20;31.65
64833;HTU21D;51290;45.060;38.948;2023-09-19T11:33:32;25.21;31.66
64833;HTU21D;51290;45.060;38.948;2023-09-19T11:36:11;25.23;31.71
64833;HTU21D;51290;45.060;38.948;2023-09-19T11:46:31;25.46;30.62
64833;HTU21D;51290;45.060;38.948;2023-09-19T11:49:08;25.47;30.85
64833;HTU21D;51290;45.060;38.948;2023-09-19T11:51:43;25.48;30.98
64833;HTU21D;51290;45.060;38.948;2023-09-19T11:54:11;25.49;31.15
64833;HTU21D;51290;45.060;38.948;2023-09-19T11:56:52;25.53;30.97
64833;HTU21D;51290;45.060;38.948;2023-09-19T11:59:24;25.58;31.10
64833;HTU21D;51290;45.060;38.948;2023-09-19T12:02:01;25.64;30.78
64833;HTU21D;51290;45.060;38.948;2023-09-19T12:04:40;25.67;30.36
64833;HTU21D;51290;45.060;38.948;2023-09-19T12:07:18;25.69;30.35
64833;HTU21D;51290;45.060;38.948;2023-09-19T12:09:48;25.72;30.23
64833;HTU21D;51290;45.060;38.948;2023-09-19T12:12:23;25.75;30.36
64833;HTU21D;51290;45.060;38.948;2023-09-19T12:14:54;25.77;30.19
64833;HTU21D;51290;45.060;38.948;2023-09-19T12:17:38;25.75;30.34
64833;HTU21D;51290;45.060;38.948;2023-09-19T12:20:07;25.73;30.45
64833;HTU21D;51290;45.060;38.948;2023-09-19T12:22:43;25.74;30.32
64833;HTU21D;51290;45.060;38.948;2023-09-19T12:25:13;25.79;30.42
64833;HTU21D;51290;45.060;38.948;2023-09-19T12:27:44;25.83;30.35
64833;HTU21D;51290;45.060;38.948;2023-09-19T12:30:13;25.84;30.23
64833;HTU21D;51290;45.060;38.948;2023-09-19T12:32:44;25.86;29.97
64833;HTU21D;51290;45.060;38.948;2023-09-19T12:35:10;25.87;29.99
64833;HTU21D;51290;45.060;38.948;2023-09-19T12:37:54;25.89;29.78
64833;HTU21D;51290;45.060;38.948;2023-09-19T12:40:22;25.90;29.77
64833;HTU21D;51290;45.060;38.948;2023-09-19T12:42:54;25.89;29.10
64833;HTU21D;51290;45.060;38.948;2023-09-19T12:45:30;25.86;29.53
64833;HTU21D;51290;45.060;38.948;2023-09-19T12:48:22;25.86;29.68
64833;HTU21D;51290;45.060;38.948;2023-09-19T12:53:39;25.91;29.55
64833;HTU21D;51290;45.060;38.948;2023-09-19T12:56:13;25.93;29.19
64833;HTU21D;51290;45.060;38.948;2023-09-19T12:58:57;25.95;29.03
64833;HTU21D;51290;45.060;38.948;2023-09-19T13:01:35;25.97;29.18
64833;HTU21D;51290;45.060;38.948;2023-09-19T13:04:12;25.97;29.11
64833;HTU21D;51290;45.060;38.948;2023-09-19T13:06:38;25.98;28.85
64833;HTU21D;51290;45.060;38.948;2023-09-19T13:09:12;25.97;28.34
64833;HTU21D;51290;45.060;38.948;2023-09-19T13:11:41;25.95;28.24
64833;HTU21D;51290;45.060;38.948;2023-09-19T13:14:22;25.93;27.88
64833;HTU21D;51290;45.060;38.948;2023-09-19T13:17:01;25.94;28.12
64833;HTU21D;51290;45.060;38.948;2023-09-19T13:19:44;25.95;28.35
64833;HTU21D;51290;45.060;38.948;2023-09-19T13:22:45;25.94;28.39
64833;HTU21D;51290;45.060;38.948;2023-09-19T13:25:24;25.95;27.45
64833;HTU21D;51290;45.060;38.948;2023-09-19T13:27:52;25.95;27.59
64833;HTU21D;51290;45.060;38.948;2023-09-19T13:30:22;25.95;27.73
64833;HTU21D;51290;45.060;38.948;2023-09-19T13:32:48;25.91;27.82
64833;HTU21D;51290;45.060;38.948;2023-09-19T13:35:15;25.89;28.08
64833;HTU21D;51290;45.060;38.948;2023-09-19T13:37:42;25.88;28.16
64833;HTU21D;51290;45.060;38.948;2023-09-19T13:40:10;25.89;28.26
64833;HTU21D;51290;45.060;38.948;2023-09-19T13:42:36;25.91;28.26
64833;HTU21D;51290;45.060;38.948;2023-09-19T13:45:03;25.90;28.30
64833;HTU21D;51290;45.060;38.948;2023-09-19T13:47:33;25.87;28.23
64833;HTU21D;51290;45.060;38.948;2023-09-19T13:50:01;25.83;28.31
64833;HTU21D;51290;45.060;38.948;2023-09-19T13:52:29;25.82;28.45
64833;HTU21D;51290;45.060;38.948;2023-09-19T13:54:57;25.82;28.61
64833;HTU21D;51290;45.060;38.948;2023-09-19T13:57:26;25.84;28.70
64833;HTU21D;51290;45.060;38.948;2023-09-19T13:59:53;25.87;28.60
64833;HTU21D;51290;45.060;38.948;2023-09-19T14:02:21;25.86;28.51
64833;HTU21D;51290;45.060;38.948;2023-09-19T14:04:51;25.88;28.38
64833;HTU21D;51290;45.060;38.948;2023-09-19T14:07:17;25.88;28.43
64833;HTU21D;51290;45.060;38.948;2023-09-19T14:09:45;25.82;28.48
64833;HTU21D;51290;45.060;38.948;2023-09-19T14:12:12;25.76;28.61
64833;HTU21D;51290;45.060;38.948;2023-09-19T14:14:38;25.75;28.68
64833;HTU21D;51290;45.060;38.948;2023-09-19T14:17:04;25.72;28.75
64833;HTU21D;51290;45.060;38.948;2023-09-19T14:19:32;25.73;28.77
64833;HTU21D;51290;45.060;38.948;2023-09-19T14:21:58;25.74;28.72
64833;HTU21D;51290;45.060;38.948;2023-09-19T14:24:26;25.76;28.74
64833;HTU21D;51290;45.060;38.948;2023-09-19T14:26:52;25.78;28.84
64833;HTU21D;51290;45.060;38.948;2023-09-19T14:29:18;25.76;28.92
64833;HTU21D;51290;45.060;38.948;2023-09-19T14:31:45;25.73;28.90
64833;HTU21D;51290;45.060;38.948;2023-09-19T14:34:11;25.66;28.81
64833;HTU21D;51290;45.060;38.948;2023-09-19T14:36:38;25.61;28.93
64833;HTU21D;51290;45.060;38.948;2023-09-19T14:39:07;25.59;28.98
64833;HTU21D;51290;45.060;38.948;2023-09-19T14:41:34;25.57;29.06
64833;HTU21D;51290;45.060;38.948;2023-09-19T14:44:02;25.52;29.07
64833;HTU21D;51290;45.060;38.948;2023-09-19T14:46:28;25.49;29.19
64833;HTU21D;51290;45.060;38.948;2023-09-19T14:48:56;25.43;29.23
64833;HTU21D;51290;45.060;38.948;2023-09-19T14:51:25;25.34;29.30
64833;HTU21D;51290;45.060;38.948;2023-09-19T14:53:53;25.24;29.41
64833;HTU21D;51290;45.060;38.948;2023-09-19T14:56:19;25.15;29.45
64833;HTU21D;51290;45.060;38.948;2023-09-19T14:58:45;25.13;29.48
64833;HTU21D;51290;45.060;38.948;2023-09-19T15:01:13;25.14;29.39
64833;HTU21D;51290;45.060;38.948;2023-09-19T15:03:40;25.14;29.39
64833;HTU21D;51290;45.060;38.948;2023-09-19T15:06:11;25.13;29.38
64833;HTU21D;51290;45.060;38.948;2023-09-19T15:08:41;25.10;29.39
64833;HTU21D;51290;45.060;38.948;2023-09-19T15:11:11;25.09;29.45
64833;HTU21D;51290;45.060;38.948;2023-09-19T15:13:38;25.05;29.45
64833;HTU21D;51290;45.060;38.948;2023-09-19T15:16:08;25.03;29.49
64833;HTU21D;51290;45.060;38.948;2023-09-19T15:18:42;25.01;29.55
64833;HTU21D;51290;45.060;38.948;2023-09-19T15:21:09;24.97;29.60
64833;HTU21D;51290;45.060;38.948;2023-09-19T15:23:37;24.90;29.68
64833;HTU21D;51290;45.060;38.948;2023-09-19T15:26:10;24.83;29.80
64833;HTU21D;51290;45.060;38.948;2023-09-19T15:28:37;24.77;29.94
64833;HTU21D;51290;45.060;38.948;2023-09-19T15:31:08;24.71;30.03
64833;HTU21D;51290;45.060;38.948;2023-09-19T15:33:34;24.66;30.13
64833;HTU21D;51290;45.060;38.948;2023-09-19T15:36:11;24.62;30.20
64833;HTU21D;51290;45.060;38.948;2023-09-19T15:38:58;24.57;30.32
64833;HTU21D;51290;45.060;38.948;2023-09-19T15:41:26;24.50;30.35
64833;HTU21D;51290;45.060;38.948;2023-09-19T15:43:53;24.44;30.47
64833;HTU21D;51290;45.060;38.948;2023-09-19T15:46:20;24.36;30.54
64833;HTU21D;51290;45.060;38.948;2023-09-19T15:48:47;24.29;30.60
64833;HTU21D;51290;45.060;38.948;2023-09-19T15:51:13;24.23;30.64
64833;HTU21D;51290;45.060;38.948;2023-09-19T15:53:47;24.17;30.70
64833;HTU21D;51290;45.060;38.948;2023-09-19T15:56:15;24.16;30.71
64833;HTU21D;51290;45.060;38.948;2023-09-19T15:58:45;24.13;30.72
64833;HTU21D;51290;45.060;38.948;2023-09-19T16:01:14;24.12;30.74
64833;HTU21D;51290;45.060;38.948;2023-09-19T16:03:43;24.10;30.72
64833;HTU21D;51290;45.060;38.948;2023-09-19T16:06:11;24.10;30.72
64833;HTU21D;51290;45.060;38.948;2023-09-19T16:08:42;24.06;30.75
64833;HTU21D;51290;45.060;38.948;2023-09-19T16:11:09;24.02;30.80
64833;HTU21D;51290;45.060;38.948;2023-09-19T16:13:36;23.96;30.86